Scroll down
FLIGHT INFORMATION
Wuleen Investment Corp

- 0000

At Arrival Gate

RJAA
 KTTN
DATE: 2020-10-25
GATE: G54
GATE DEPARTURE: 16:21
TAKEOFF: 16:32
DATE: 2020-10-26
GATE:  -
LANDING: 05:20
GATE ARRIVAL: 05:26
FLIGHT DATA
Crew: 
Speed: 
470 kts
Altitude: 
39,016 ft
Stage Length: 
5,845.0 nm
Block Time: 
13.1 hrs
Flight Time: 
12.8 hrs
Fuel Used: 
30,186 kg
Cleared Route: RJAA KIMIN SDE MQE HOKTO HIROO AKESI TROUT CRANE KSE MASHU DONIS NETRI OTLER SENOR UB MK KULOD KUDER GEFAR DENZI KOKUN APTIK UK PEMIG KUTAD TK GUNBA TUSER UNEDA LUGUT SOMEG MITKA KEKOP LUNAD OLKIP AKISA NB RATET KUMOG KURIP FRENK OTZ CQR TUVVO YOC MEKTA GH BAMPS ITNOT YSF YTH ZSJ YSP YVV PSB KTTN
TRACK DATA
50,000 ft 1,000 kts
AIRCRAFT INFO AND CUMULATIVE STATS
Aircraft Type: 
B737BBJBW
Registration: 
SELCAL: 
MSN/LN: 
38408 / 4730
Total Flights: 
11
Total Block Time: 
100 hrs
Total Flight Time: 
97.9 hrs
Total Fuel Used: 
183,577 kg
DATALINK LOG | Newest first | Current as of: 2022-12-01 00:29:44
LABEL SEQUENCE CONTENT Dn/Up
5Z303826 OCT 20 05:28:58z / FLT DECK GOOD / ACF POS GOOD / GRND SERVICES GOOD / MAINT GOOD▼ Dn
QD283605:26 3.5▼ Dn
QC213005:20▼ Dn
GA1534GATE PENDING▲ Up
GR1524KTTN 05:19 MAAS 00 YP/UM 00/00 WCHR/S/C 00/00/00 HI-VAL NO DIPL/VIP YES▼ Dn
2U0031KTTN 260453Z AUTO 02006KT 5SM BR OVC004 08/07 A3020 RMK AO2 RAE37 SLP222 P0001 T00780072 401110050▲ Up
2S0110KTTN▼ Dn
2U5447KTTN 260353Z AUTO 03008KT 2 1/2SM -RA BR OVC004 08/07 A3022 RMK AO2 RAB47 CIG 003V007 SLP227 P0000 T00780072▲ Up
2S5505KTTN▼ Dn
2U4140KTTN 260353Z AUTO 03008KT 2 1/2SM -RA BR OVC004 08/07 A3022 RMK AO2 RAB47 CIG 003V007 SLP227 P0000 T00780072▲ Up
2S4150KTTN▼ Dn
QB334016:32▼ Dn
QA222916:21 70▼ Dn
2U1000RJAA 251530Z 22004KT 9999 FEW030 10/08 Q1015 NOSIG RMK 1CU030 A2997▲ Up
2S1118RJAA▼ Dn
A34804NO MATCHING FLIGHT DATA AVAILABLE FROM ANSP▲ Up
B34755RJAA KTTN VP0000 VPCZW ▼ Dn
Q03947[LINK ACK]▲ Up
Q03947[LINK TEST]▼ Dn


AIRCRAFT HISTORY
FLIGHT DATE FLIGHT NO. ORIGIN DESTINATION CLEARED ROUTE BLOCK TIME FLIGHT TIME FUEL USED PILOT
2022-01-141ESSA LFBO ESSA NOSLI TONSA ABAMA GIMRU IDOSA TOLVU RAPOR RENSA NITEP GIMER PIWEB AHVEC RESMI DEKOD DISAK DIRMO GUERE NARAK LFBO3.1 hrs2.9 hrs13,814 lbRobin Oeverby
2022-01-13113ENZV ESSA ENZV UPLEV TOR ARGIB ELTOK ESSA1.2 hrs1 hrs5,990 lbRobin Oeverby
2021-08-17817EHAM ENZV EHAM BERGI SUPUR ROKAN VENAS LARGA PENUN PIXEG UNBUD ENZV1.5 hrs1.3 hrs7,090 lbKevin Hall
2021-02-16200WSSS EHAM WSSS AROSO GEMAS VBA SUKAT TEPUS VPG GOGOM DUBAX UTHAI OSVIP URGAD PUT SATVA ANPAN TAVUN MIPAK LADER NISUN LIBDI MABUR VEPIM LAMBU TATUX LEMEX ONATI BBS GUTID JRS KINKI LAPAN BBN LKN JAL PUMOT SP ONOGI CHG LAKET SULOM INDEK NONIB HANGU LAJAK GULNI ALMOL PINAX KURUT NITNI KASFO OTFOD UMZAN OTKIM ODIVA ARKER GERLI EDAKO URL ARISA TEDKI PELAP RULAT MOPOL UGMET KUNIM ORTAT UNLAK ADSAT GEKPA GOLRI IDPIS OLOPI LODKU ENOSI SOTOG GITIK GODBI NEBSU ASKIL RUBUN BADUS DIMTA VABER SUWGI ARDUT OLKIN IXIXI GRUDA UNDUK ASGUL TOMKO BINKA KUBAB NUVEN TAGOB BERIM RAMAR EEL EHAM20.4 hrs20.3 hrs60,490 lbAlex K.
2020-11-072WMKK WSSS WSSS NYLON WSSS1.1 hrs0.8 hrs4,552 lbEphedrin
2020-10-31 0000WSSS WMKK WSSS MASBO GUPTA WMKK0.9 hrs0.6 hrs4,944 lbStirling Day
2020-10-281HSWW WSSS HSWW LABAT DASTA IXEBU UTIVA 2260S 2670S 2680S 2690S POLUM 16S00 AKUKO 04S03 JATAM ASUNA WSSS12.9 hrs12.7 hrs64,386 lbAlex K.
2020-10-271KTTN HSWW KTTN RBV JOANI CREEL SHLEP RIFLE KYSKY CUTOX CUJKE ACK VITOL CARAC JAROM BOBTU RAFIN 4550N 4440N 4230N LENSI GUNTI SONAP TAKAV FES IBEVO OLMAG BRF SIHAR ATAFA DJA IKTAV ENDOK AMDIR DEMOX 1520E HSWW11.9 hrs11.7 hrs62,123 lbAlex K.
2020-10-25- 0000RJAA KTTN RJAA KIMIN SDE MQE HOKTO HIROO AKESI TROUT CRANE KSE MASHU DONIS NETRI OTLER SENOR UB MK KULOD KUDER GEFAR DENZI KOKUN APTIK UK PEMIG KUTAD TK GUNBA TUSER UNEDA LUGUT SOMEG MITKA KEKOP LUNAD OLKIP AKISA NB RATET KUMOG KURIP FRENK OTZ CQR TUVVO YOC MEKTA GH BAMPS ITNOT YSF YTH ZSJ YSP YVV PSB KTTN13.1 hrs12.8 hrs66,549 lbJames W.
2020-10-24-2354KPHX RJAA KPHX MESSI PKE ROMOF SNS ALCOA 38N30 39N40 40N50 40N60 41N70 38E80 35E70 34E60 34E50 MORAY POVAL TOKAT MENIX VAGLA BINKS RJAA13.5 hrs13.3 hrs53,350 lbAlex K.
2020-10-24-0010VHHH KPHX VHHH CH MAGOG ELATO ANPOG KADLO MKG SWORD HLG PIDGY APU ANNNA DRAKE AISAR OSTAR BULAN IGMON SAPET URUMA AKVAS RUSAR JEDAI KOSHI KAZAN HKC JINGU FENIX SUC OKITU SUSAK KRE POPPY OBOKE KTE OLIVE YME KMC OYABE IMIZU URUSI IKUJI GORYU HAKBA TERAD GTC MAMRO HANKA TOLEK HPE MQE HOKTO HIROO AKESI CRANE KSE D187J TBE ODERI DONIS NETRI OTLER RIMLI OGTES LUMES ONEIL AMOND DRAPP CRYPT CDB HBT 55N50 53N40 NUDGE 49N30 SHARI VIPRE PASST WYMAN TREMO BLIPP WOTRO KPHX20.5 hrs20.3 hrs61,428 lbAlex K.